BAW965 EDDH-EGLL
Flight info
| Callsign | BAW965 |
|---|---|
| Flight time | 1h 12m |
| Altitude | 38000 |
| Route | WSN4B WSN N125 ITMIZ DCT ABNED L980 LOGAN |
| Aircraft | A319/M-SDE3FGHIRWY/LB1 |
Departure
| Time | 2026-05-04 10:20 |
|---|---|
| Airport | Hamburg Helmut Schmidt Airport (EDDH) |
Arrival
| Time | 2026-05-04 11:33 |
|---|---|
| Airport | London Heathrow Airport (EGLL) |
| Time | Latitude | Longitude | Altitude | Speed | Heading |
|---|---|---|---|---|---|
| 2026-05-04 10:05 | 53.63374 | 10.00340 | 51 ft | 0 kts | 86° |
| 2026-05-04 10:12 | 53.63373 | 10.00312 | 48 ft | 3 kts | 86° |
| 2026-05-04 10:12 | 53.63371 | 10.00280 | 51 ft | 3 kts | 86° |
| 2026-05-04 10:13 | 53.63370 | 10.00249 | 46 ft | 3 kts | 117° |
| 2026-05-04 10:13 | 53.63380 | 10.00226 | 49 ft | 2 kts | 172° |
| 2026-05-04 10:13 | 53.63381 | 10.00226 | 49 ft | 0 kts | 172° |
| 2026-05-04 10:16 | 53.63338 | 10.00233 | 51 ft | 7 kts | 176° |
| 2026-05-04 10:16 | 53.63274 | 10.00240 | 51 ft | 11 kts | 175° |
| 2026-05-04 10:16 | 53.63183 | 10.00251 | 51 ft | 15 kts | 176° |
| 2026-05-04 10:16 | 53.63073 | 10.00253 | 51 ft | 15 kts | 195° |
| 2026-05-04 10:17 | 53.62976 | 10.00162 | 51 ft | 16 kts | 211° |
| 2026-05-04 10:17 | 53.62873 | 10.00066 | 50 ft | 17 kts | 190° |
| 2026-05-04 10:19 | 53.62585 | 9.99988 | 47 ft | 0 kts | 334° |
| 2026-05-04 10:19 | 53.62591 | 9.99983 | 47 ft | 5 kts | 334° |
| 2026-05-04 10:19 | 53.62827 | 9.99779 | 49 ft | 75 kts | 332° |
| 2026-05-04 10:20 | 53.63472 | 9.99221 | 50 ft | 131 kts | 333° |
| 2026-05-04 10:20 | 53.64406 | 9.98418 | 204 ft | 163 kts | 332° |
| 2026-05-04 10:20 | 53.65488 | 9.97501 | 524 ft | 184 kts | 332° |
| 2026-05-04 10:20 | 53.66638 | 9.96522 | 1148 ft | 185 kts | 330° |
| 2026-05-04 10:21 | 53.67786 | 9.95542 | 1800 ft | 188 kts | 330° |
| 2026-05-04 10:21 | 53.68995 | 9.94493 | 2362 ft | 203 kts | 329° |
| 2026-05-04 10:21 | 53.70280 | 9.93366 | 3060 ft | 210 kts | 329° |
| 2026-05-04 10:21 | 53.71348 | 9.91736 | 3829 ft | 211 kts | 295° |
| 2026-05-04 10:22 | 53.71124 | 9.86488 | 4852 ft | 251 kts | 253° |
| 2026-05-04 10:22 | 53.70533 | 9.83680 | 4933 ft | 254 kts | 251° |
| 2026-05-04 10:22 | 53.69910 | 9.80908 | 4928 ft | 252 kts | 250° |
| 2026-05-04 10:23 | 53.69304 | 9.78133 | 5013 ft | 252 kts | 251° |
| 2026-05-04 10:23 | 53.68726 | 9.75339 | 5076 ft | 253 kts | 252° |
| 2026-05-04 10:25 | 53.62252 | 9.57040 | 9970 ft | 269 kts | 237° |
| 2026-05-04 10:25 | 53.61177 | 9.54359 | 10429 ft | 287 kts | 237° |
| 2026-05-04 10:25 | 53.60034 | 9.51466 | 10828 ft | 304 kts | 238° |
| 2026-05-04 10:25 | 53.58857 | 9.48471 | 11528 ft | 309 kts | 238° |
| 2026-05-04 10:26 | 53.57667 | 9.45429 | 12309 ft | 313 kts | 238° |
| 2026-05-04 10:26 | 53.56465 | 9.42360 | 13081 ft | 316 kts | 238° |
| 2026-05-04 10:26 | 53.55252 | 9.39267 | 13849 ft | 319 kts | 238° |
| 2026-05-04 10:26 | 53.54026 | 9.36145 | 14539 ft | 321 kts | 238° |
| 2026-05-04 10:27 | 53.52791 | 9.33006 | 15244 ft | 323 kts | 237° |
| 2026-05-04 10:27 | 53.51546 | 9.29850 | 15928 ft | 325 kts | 237° |
| 2026-05-04 10:27 | 53.50294 | 9.26675 | 16620 ft | 327 kts | 237° |
| 2026-05-04 10:27 | 53.49030 | 9.23477 | 17321 ft | 329 kts | 237° |
| 2026-05-04 10:28 | 53.47761 | 9.20268 | 18014 ft | 331 kts | 237° |
| 2026-05-04 10:28 | 53.46485 | 9.17038 | 18649 ft | 333 kts | 237° |
| 2026-05-04 10:28 | 53.45199 | 9.13791 | 19265 ft | 335 kts | 237° |
| 2026-05-04 10:28 | 53.43908 | 9.10537 | 19891 ft | 336 kts | 237° |
| 2026-05-04 10:29 | 53.42610 | 9.07268 | 20518 ft | 337 kts | 237° |
| 2026-05-04 10:29 | 53.41307 | 9.03992 | 21140 ft | 339 kts | 237° |
| 2026-05-04 10:29 | 53.39997 | 9.00699 | 21737 ft | 340 kts | 237° |
| 2026-05-04 10:29 | 53.38694 | 8.97432 | 22259 ft | 343 kts | 237° |
| 2026-05-04 10:30 | 53.37343 | 8.94051 | 22831 ft | 346 kts | 237° |
| 2026-05-04 10:30 | 53.36003 | 8.90699 | 23403 ft | 348 kts | 237° |
| 2026-05-04 10:30 | 53.34752 | 8.87281 | 23881 ft | 350 kts | 243° |
| 2026-05-04 10:30 | 53.33824 | 8.83437 | 24339 ft | 353 kts | 249° |
| 2026-05-04 10:31 | 53.32979 | 8.79567 | 24796 ft | 355 kts | 249° |
| 2026-05-04 10:31 | 53.32125 | 8.75686 | 25242 ft | 357 kts | 249° |
| 2026-05-04 10:32 | 53.26886 | 8.51967 | 27934 ft | 369 kts | 249° |
| 2026-05-04 10:33 | 53.26027 | 8.47978 | 28352 ft | 371 kts | 250° |
| 2026-05-04 10:33 | 53.25217 | 8.43876 | 28783 ft | 373 kts | 252° |
| 2026-05-04 10:33 | 53.24446 | 8.39728 | 29203 ft | 376 kts | 252° |
| 2026-05-04 10:33 | 53.23686 | 8.35543 | 29618 ft | 378 kts | 252° |
| 2026-05-04 10:34 | 53.22921 | 8.31341 | 30018 ft | 380 kts | 252° |
| 2026-05-04 10:34 | 53.22141 | 8.27106 | 30358 ft | 382 kts | 252° |
| 2026-05-04 10:34 | 53.21345 | 8.22865 | 30669 ft | 385 kts | 252° |
| 2026-05-04 10:34 | 53.20530 | 8.18590 | 30993 ft | 388 kts | 251° |
| 2026-05-04 10:35 | 53.19705 | 8.14290 | 31282 ft | 391 kts | 251° |
| 2026-05-04 10:35 | 53.18876 | 8.09964 | 31558 ft | 394 kts | 251° |
| 2026-05-04 10:35 | 53.18050 | 8.05604 | 31917 ft | 394 kts | 251° |
| 2026-05-04 10:35 | 53.17230 | 8.01241 | 32308 ft | 395 kts | 251° |
| 2026-05-04 10:36 | 53.16410 | 7.96872 | 32685 ft | 395 kts | 251° |
| 2026-05-04 10:36 | 53.15587 | 7.92501 | 33058 ft | 396 kts | 251° |
| 2026-05-04 10:36 | 53.14759 | 7.88127 | 33423 ft | 397 kts | 251° |
| 2026-05-04 10:36 | 53.13923 | 7.83743 | 33812 ft | 397 kts | 250° |
| 2026-05-04 10:37 | 53.13085 | 7.79359 | 34149 ft | 398 kts | 250° |
| 2026-05-04 10:37 | 53.12245 | 7.74972 | 34474 ft | 398 kts | 251° |
| 2026-05-04 10:37 | 53.11400 | 7.70573 | 34791 ft | 399 kts | 251° |
| 2026-05-04 10:37 | 53.10543 | 7.66183 | 35095 ft | 399 kts | 249° |
| 2026-05-04 10:39 | 53.04043 | 7.40576 | 36759 ft | 402 kts | 247° |
| 2026-05-04 10:39 | 53.02946 | 7.36304 | 37026 ft | 402 kts | 247° |
| 2026-05-04 10:39 | 53.01846 | 7.32037 | 37277 ft | 401 kts | 247° |
| 2026-05-04 10:40 | 53.00746 | 7.27784 | 37581 ft | 401 kts | 247° |
| 2026-05-04 10:40 | 52.99646 | 7.23534 | 37856 ft | 400 kts | 247° |
| 2026-05-04 10:40 | 52.98545 | 7.19281 | 37971 ft | 401 kts | 247° |
| 2026-05-04 10:41 | 52.96350 | 7.10765 | 38002 ft | 402 kts | 247° |
| 2026-05-04 10:41 | 52.94140 | 7.02243 | 37996 ft | 403 kts | 247° |
| 2026-05-04 10:42 | 52.91908 | 6.93717 | 37992 ft | 403 kts | 247° |
| 2026-05-04 10:42 | 52.89685 | 6.85266 | 37999 ft | 403 kts | 247° |
| 2026-05-04 10:43 | 52.87443 | 6.76757 | 37993 ft | 403 kts | 247° |
| 2026-05-04 10:45 | 52.78435 | 6.42840 | 37993 ft | 402 kts | 246° |
| 2026-05-04 10:45 | 52.76178 | 6.34391 | 37994 ft | 402 kts | 246° |
| 2026-05-04 10:46 | 52.73908 | 6.25957 | 37994 ft | 402 kts | 246° |
| 2026-05-04 10:46 | 52.72014 | 6.18952 | 37997 ft | 402 kts | 246° |
| 2026-05-04 10:47 | 52.69733 | 6.10527 | 37994 ft | 402 kts | 246° |
| 2026-05-04 10:47 | 52.67446 | 6.02108 | 38007 ft | 402 kts | 245° |
| 2026-05-04 10:49 | 52.58189 | 5.68398 | 37986 ft | 404 kts | 245° |
| 2026-05-04 10:50 | 52.55858 | 5.59983 | 38000 ft | 404 kts | 245° |
| 2026-05-04 10:52 | 52.46487 | 5.26426 | 37991 ft | 405 kts | 245° |
| 2026-05-04 10:52 | 52.44123 | 5.18036 | 37989 ft | 406 kts | 245° |
| 2026-05-04 10:54 | 52.34589 | 4.84535 | 37987 ft | 407 kts | 244° |
| 2026-05-04 10:56 | 52.24924 | 4.51013 | 37986 ft | 410 kts | 243° |
| 2026-05-04 10:57 | 52.22473 | 4.42611 | 37989 ft | 410 kts | 243° |
| 2026-05-04 10:57 | 52.20021 | 4.34214 | 37976 ft | 410 kts | 243° |
| 2026-05-04 10:58 | 52.17567 | 4.25825 | 37987 ft | 410 kts | 243° |
| 2026-05-04 10:58 | 52.15103 | 4.17465 | 37995 ft | 409 kts | 242° |
| 2026-05-04 10:59 | 52.12631 | 4.09124 | 38005 ft | 409 kts | 242° |
| 2026-05-04 10:59 | 52.10153 | 4.00777 | 38011 ft | 410 kts | 242° |
| 2026-05-04 11:00 | 52.07673 | 3.92436 | 38040 ft | 410 kts | 242° |
| 2026-05-04 11:02 | 51.97647 | 3.58963 | 38005 ft | 413 kts | 242° |
| 2026-05-04 11:05 | 51.83395 | 2.93620 | 37385 ft | 419 kts | 261° |
| 2026-05-04 11:06 | 51.83086 | 2.88939 | 37131 ft | 419 kts | 261° |
| 2026-05-04 11:06 | 51.82774 | 2.84248 | 36863 ft | 419 kts | 261° |
| 2026-05-04 11:06 | 51.82459 | 2.79570 | 36276 ft | 420 kts | 261° |
| 2026-05-04 11:06 | 51.82142 | 2.74909 | 35933 ft | 414 kts | 261° |
| 2026-05-04 11:08 | 51.79974 | 2.43419 | 32836 ft | 390 kts | 259° |
| 2026-05-04 11:10 | 51.77945 | 2.14065 | 29964 ft | 366 kts | 260° |
| 2026-05-04 11:12 | 51.76337 | 1.86475 | 27439 ft | 340 kts | 261° |
| 2026-05-04 11:12 | 51.76106 | 1.82698 | 27093 ft | 336 kts | 261° |
| 2026-05-04 11:12 | 51.75876 | 1.78956 | 26742 ft | 333 kts | 261° |
| 2026-05-04 11:12 | 51.75646 | 1.75263 | 26396 ft | 329 kts | 261° |
| 2026-05-04 11:13 | 51.75415 | 1.71607 | 26055 ft | 326 kts | 261° |
| 2026-05-04 11:13 | 51.75185 | 1.67993 | 25699 ft | 323 kts | 261° |
| 2026-05-04 11:13 | 51.74960 | 1.64403 | 25344 ft | 320 kts | 262° |
| 2026-05-04 11:13 | 51.74736 | 1.60842 | 24991 ft | 318 kts | 262° |
| 2026-05-04 11:14 | 51.74505 | 1.57231 | 24502 ft | 330 kts | 262° |
| 2026-05-04 11:14 | 51.74268 | 1.53524 | 23994 ft | 333 kts | 262° |
| 2026-05-04 11:14 | 51.74031 | 1.49796 | 23475 ft | 335 kts | 262° |
| 2026-05-04 11:16 | 51.72331 | 1.23690 | 19928 ft | 334 kts | 262° |
| 2026-05-04 11:16 | 51.72083 | 1.19967 | 19427 ft | 334 kts | 262° |
| 2026-05-04 11:16 | 51.71833 | 1.16244 | 18927 ft | 334 kts | 262° |
| 2026-05-04 11:17 | 51.71584 | 1.12516 | 18427 ft | 335 kts | 262° |
| 2026-05-04 11:17 | 51.71333 | 1.08784 | 17881 ft | 335 kts | 262° |
| 2026-05-04 11:19 | 51.69563 | 0.83078 | 14566 ft | 322 kts | 262° |
| 2026-05-04 11:19 | 51.69310 | 0.79508 | 14131 ft | 320 kts | 262° |
| 2026-05-04 11:19 | 51.69057 | 0.75954 | 13682 ft | 318 kts | 262° |
| 2026-05-04 11:19 | 51.68807 | 0.72429 | 13228 ft | 315 kts | 262° |
| 2026-05-04 11:20 | 51.68560 | 0.68943 | 12805 ft | 312 kts | 262° |
| 2026-05-04 11:20 | 51.68315 | 0.65485 | 12382 ft | 309 kts | 262° |
| 2026-05-04 11:20 | 51.68071 | 0.62066 | 11966 ft | 306 kts | 262° |
| 2026-05-04 11:20 | 51.67823 | 0.58669 | 11514 ft | 305 kts | 261° |
| 2026-05-04 11:22 | 51.62557 | 0.37888 | 8035 ft | 259 kts | 246° |
| 2026-05-04 11:22 | 51.61863 | 0.35273 | 7736 ft | 252 kts | 246° |
| 2026-05-04 11:23 | 51.61173 | 0.32686 | 7444 ft | 252 kts | 246° |
| 2026-05-04 11:23 | 51.60478 | 0.30088 | 7144 ft | 252 kts | 246° |
| 2026-05-04 11:24 | 51.56302 | 0.14548 | 5270 ft | 250 kts | 246° |
| 2026-05-04 11:25 | 51.55612 | 0.11992 | 4969 ft | 248 kts | 246° |
| 2026-05-04 11:25 | 51.54936 | 0.09491 | 4667 ft | 247 kts | 246° |
| 2026-05-04 11:25 | 51.54252 | 0.06962 | 4356 ft | 246 kts | 246° |
| 2026-05-04 11:26 | 51.52897 | 0.01968 | 3789 ft | 241 kts | 246° |
| 2026-05-04 11:27 | 51.48769 | -0.13200 | 3177 ft | 189 kts | 246° |
| 2026-05-04 11:28 | 51.48257 | -0.15069 | 3083 ft | 177 kts | 246° |
| 2026-05-04 11:28 | 51.47901 | -0.16871 | 2993 ft | 163 kts | 266° |
| 2026-05-04 11:28 | 51.47848 | -0.18640 | 2990 ft | 157 kts | 268° |
| 2026-05-04 11:28 | 51.47823 | -0.20367 | 2879 ft | 154 kts | 270° |
| 2026-05-04 11:29 | 51.47811 | -0.22082 | 2704 ft | 153 kts | 270° |
| 2026-05-04 11:29 | 51.47805 | -0.23789 | 2536 ft | 153 kts | 271° |
| 2026-05-04 11:29 | 51.47801 | -0.25493 | 2332 ft | 153 kts | 271° |
| 2026-05-04 11:29 | 51.47799 | -0.27195 | 2127 ft | 153 kts | 271° |
| 2026-05-04 11:31 | 51.47777 | -0.38885 | 711 ft | 145 kts | 271° |
| 2026-05-04 11:33 | 51.47555 | -0.46086 | 88 ft | 19 kts | 207° |
| 2026-05-04 11:33 | 51.47517 | -0.46202 | 86 ft | 20 kts | 273° |
| 2026-05-04 11:33 | 51.47518 | -0.46429 | 86 ft | 21 kts | 272° |
| 2026-05-04 11:34 | 51.47514 | -0.46679 | 86 ft | 24 kts | 266° |
| 2026-05-04 11:34 | 51.47493 | -0.46948 | 86 ft | 26 kts | 271° |
| 2026-05-04 11:34 | 51.47492 | -0.47179 | 86 ft | 18 kts | 270° |
| 2026-05-04 11:34 | 51.47491 | -0.47391 | 86 ft | 20 kts | 269° |
| 2026-05-04 11:35 | 51.47491 | -0.47630 | 86 ft | 23 kts | 270° |
| 2026-05-04 11:35 | 51.47489 | -0.47897 | 86 ft | 25 kts | 269° |
| 2026-05-04 11:35 | 51.47489 | -0.48115 | 86 ft | 16 kts | 270° |
| 2026-05-04 11:35 | 51.47486 | -0.48304 | 88 ft | 15 kts | 256° |
| 2026-05-04 11:36 | 51.47389 | -0.48358 | 86 ft | 17 kts | 180° |
| 2026-05-04 11:36 | 51.47288 | -0.48372 | 86 ft | 13 kts | 211° |
| 2026-05-04 11:36 | 51.47272 | -0.48494 | 86 ft | 7 kts | 270° |
| 2026-05-04 11:36 | 51.47271 | -0.48539 | 86 ft | 1 kts | 270° |
| 2026-05-04 11:37 | 51.47271 | -0.48566 | 88 ft | 3 kts | 269° |
| 2026-05-04 11:37 | 51.47271 | -0.48588 | 86 ft | 0 kts | 269° |